createdAt,value
2022-08-24T00:01:27.293Z,9.77
2022-08-24T00:03:57.530Z,3.80
2022-08-24T00:06:27.650Z,3.13
2022-08-24T00:08:55.457Z,4.28
2022-08-24T00:11:22.794Z,3.90
2022-08-24T00:13:49.549Z,3.80
2022-08-24T00:16:16.742Z,4.80
2022-08-24T00:18:44.195Z,4.43
2022-08-24T00:21:10.883Z,3.20
2022-08-24T00:23:39.633Z,5.32
2022-08-24T00:26:06.779Z,8.10
2022-08-24T00:28:33.814Z,3.88
2022-08-24T00:31:00.343Z,5.25
2022-08-24T00:33:26.886Z,3.20
2022-08-24T00:35:53.377Z,3.70
2022-08-24T00:38:19.904Z,3.33
2022-08-24T00:40:49.437Z,3.20
2022-08-24T00:43:25.219Z,6.22
2022-08-24T00:46:29.439Z,8.65
2022-08-24T00:49:11.542Z,4.05
2022-08-24T00:51:50.412Z,5.75
2022-08-24T00:54:18.803Z,3.90
2022-08-24T00:56:52.197Z,4.03
2022-08-24T00:59:23.706Z,7.72
2022-08-24T01:01:52.092Z,3.78
2022-08-24T01:04:28.912Z,4.82
2022-08-24T01:06:57.252Z,4.32
2022-08-24T01:09:23.886Z,4.53
2022-08-24T01:11:50.937Z,3.40
2022-08-24T01:14:21.233Z,3.25
2022-08-24T01:17:23.120Z,5.15
2022-08-24T01:19:56.554Z,3.00
2022-08-24T01:22:23.032Z,5.20
2022-08-24T01:24:49.702Z,3.08
2022-08-24T01:27:19.999Z,3.88
2022-08-24T01:29:55.814Z,4.97
2022-08-24T01:32:27.872Z,3.58
2022-08-24T01:34:57.869Z,2.83
2022-08-24T01:37:27.146Z,2.55
2022-08-24T01:39:59.077Z,3.70
2022-08-24T01:42:27.105Z,3.50
2022-08-24T01:44:53.585Z,4.00
2022-08-24T01:47:20.109Z,3.97
2022-08-24T01:49:48.747Z,2.63
2022-08-24T01:52:19.022Z,4.95
2022-08-24T01:54:45.649Z,10.20
2022-08-24T01:57:16.254Z,3.97
2022-08-24T01:59:44.212Z,3.15
2022-08-24T02:02:23.468Z,4.13
2022-08-24T02:04:50.435Z,5.00
2022-08-24T02:07:16.936Z,7.18
2022-08-24T02:09:43.462Z,3.97
2022-08-24T02:12:10.209Z,3.45
2022-08-24T02:14:37.219Z,3.17
2022-08-24T02:17:06.200Z,2.38
2022-08-24T02:19:33.520Z,3.42
2022-08-24T02:22:00.993Z,8.80
2022-08-24T02:24:28.512Z,5.40
2022-08-24T02:26:55.748Z,3.30
2022-08-24T02:29:22.548Z,4.75
2022-08-24T02:31:49.186Z,3.88
2022-08-24T02:34:18.474Z,4.80
2022-08-24T02:36:45.173Z,3.30
2022-08-24T02:39:11.949Z,2.53
2022-08-24T02:41:38.898Z,3.08
2022-08-24T02:44:06.184Z,3.03
2022-08-24T02:46:32.967Z,3.17
2022-08-24T02:49:11.700Z,3.30
2022-08-24T02:51:44.591Z,4.70
2022-08-24T02:54:18.226Z,2.63
2022-08-24T02:56:46.791Z,2.75
2022-08-24T02:59:14.110Z,3.88
2022-08-24T03:01:41.242Z,4.97
2022-08-24T03:04:08.055Z,3.45
2022-08-24T03:06:37.412Z,5.32
2022-08-24T03:09:04.308Z,5.63
2022-08-24T03:11:33.615Z,3.15
2022-08-24T03:14:00.331Z,4.53
2022-08-24T03:16:30.657Z,5.53
2022-08-24T03:19:00.589Z,3.83
2022-08-24T03:21:30.940Z,5.13
2022-08-24T03:23:57.521Z,3.80
2022-08-24T03:26:24.252Z,2.67
2022-08-24T03:28:51.569Z,8.07
2022-08-24T03:31:20.960Z,8.10
2022-08-24T03:33:48.423Z,3.88
2022-08-24T03:36:15.448Z,4.18
2022-08-24T03:38:42.786Z,4.80
2022-08-24T03:41:10.215Z,6.65
2022-08-24T03:43:56.007Z,2.80
2022-08-24T03:46:28.697Z,6.45
2022-08-24T03:48:59.068Z,3.53
2022-08-24T03:51:29.242Z,2.72
2022-08-24T03:53:58.639Z,5.38
2022-08-24T03:56:26.340Z,3.85
2022-08-24T03:58:58.142Z,4.25
2022-08-24T04:01:27.505Z,8.82
2022-08-24T04:03:56.976Z,7.05
2022-08-24T04:06:23.872Z,4.95
2022-08-24T04:08:51.417Z,4.63
2022-08-24T04:11:25.562Z,3.53
2022-08-24T04:13:56.514Z,3.78
2022-08-24T04:16:24.892Z,3.55
2022-08-24T04:18:52.037Z,2.70
2022-08-24T04:21:22.257Z,7.22
2022-08-24T04:23:50.359Z,3.20
2022-08-24T04:26:32.469Z,3.00
2022-08-24T04:29:16.683Z,2.88
2022-08-24T04:31:44.377Z,5.13
2022-08-24T04:34:12.421Z,2.78
2022-08-24T04:36:45.926Z,4.85
2022-08-24T04:39:13.048Z,4.22
2022-08-24T04:41:42.046Z,9.43
2022-08-24T04:44:08.692Z,6.90
2022-08-24T04:46:35.536Z,7.47
2022-08-24T04:49:02.148Z,7.97
2022-08-24T04:51:36.655Z,4.80
2022-08-24T04:54:08.490Z,4.13
2022-08-24T04:56:36.346Z,11.35
2022-08-24T04:59:05.627Z,9.68
2022-08-24T05:01:34.685Z,17.50
2022-08-24T05:04:02.863Z,16.70
2022-08-24T05:06:33.942Z,18.30
2022-08-24T05:09:01.785Z,21.88
2022-08-24T05:11:29.186Z,23.63
2022-08-24T05:13:56.982Z,24.02
2022-08-24T05:16:26.855Z,23.17
2022-08-24T05:18:54.739Z,23.55
2022-08-24T05:21:30.969Z,21.88
2022-08-24T05:23:57.721Z,25.75
2022-08-24T05:26:27.091Z,19.63
2022-08-24T05:28:58.852Z,18.30
2022-08-24T05:31:30.278Z,20.42
2022-08-24T05:33:58.705Z,14.40
2022-08-24T05:36:29.868Z,13.43
2022-08-24T05:39:02.863Z,12.98
2022-08-24T05:41:31.725Z,13.85
2022-08-24T05:43:59.215Z,13.82
2022-08-24T05:46:26.382Z,14.57
2022-08-24T05:48:53.380Z,20.27
2022-08-24T05:51:21.334Z,13.68
2022-08-24T05:53:48.539Z,13.98
2022-08-24T05:56:17.316Z,14.27
2022-08-24T05:58:44.711Z,17.60
2022-08-24T06:01:23.630Z,12.48
2022-08-24T06:03:51.295Z,14.05
2022-08-24T06:06:19.385Z,12.55
2022-08-24T06:08:51.293Z,15.82
2022-08-24T06:11:38.462Z,14.25
2022-08-24T06:14:13.531Z,16.23
2022-08-24T06:16:44.619Z,15.18
2022-08-24T06:19:14.121Z,13.73
2022-08-24T06:21:43.538Z,12.20
2022-08-24T06:24:10.229Z,17.60
2022-08-24T06:26:55.397Z,13.75
2022-08-24T06:29:22.098Z,13.68
2022-08-24T06:31:54.551Z,12.85
2022-08-24T06:34:26.229Z,14.77
2022-08-24T06:36:53.035Z,11.98
2022-08-24T06:39:20.697Z,12.35
2022-08-24T06:41:49.670Z,22.17
2022-08-24T06:44:18.524Z,10.27
2022-08-24T06:46:45.497Z,10.45
2022-08-24T06:49:12.246Z,12.68
2022-08-24T06:51:38.792Z,12.40
2022-08-24T06:54:05.708Z,15.68
2022-08-24T06:56:35.643Z,10.18
2022-08-24T06:59:04.228Z,14.32
2022-08-24T07:01:34.138Z,9.75
2022-08-24T07:04:03.013Z,10.45
2022-08-24T07:06:32.095Z,8.60
2022-08-24T07:08:58.770Z,9.20
2022-08-24T07:11:28.073Z,8.48
2022-08-24T07:13:59.685Z,10.15
2022-08-24T07:16:29.122Z,11.95
2022-08-24T07:18:55.902Z,8.00
2022-08-24T07:21:25.200Z,13.63
2022-08-24T07:23:59.223Z,7.50
2022-08-24T07:26:29.963Z,7.13
2022-08-24T07:29:06.375Z,6.15
2022-08-24T07:31:38.036Z,5.70
2022-08-24T07:34:07.150Z,6.35
2022-08-24T07:36:35.118Z,5.95
2022-08-24T07:39:02.730Z,9.23
2022-08-24T07:41:51.294Z,7.03
2022-08-24T07:44:26.611Z,7.07
2022-08-24T07:46:55.522Z,4.78
2022-08-24T07:49:36.047Z,4.43
2022-08-24T07:52:03.930Z,4.68
2022-08-24T07:54:30.896Z,8.70
2022-08-24T07:57:02.277Z,4.85
2022-08-24T07:59:28.949Z,3.67
2022-08-24T08:01:55.677Z,7.22
2022-08-24T08:04:26.122Z,2.78
2022-08-24T08:06:53.737Z,5.40
2022-08-24T08:09:20.933Z,6.45
2022-08-24T08:11:47.544Z,2.80
2022-08-24T08:14:14.936Z,3.33
2022-08-24T08:16:41.871Z,2.17
2022-08-24T08:19:13.308Z,3.70
2022-08-24T08:22:08.184Z,2.42
2022-08-24T08:24:36.917Z,6.88
2022-08-24T08:27:03.705Z,2.00
2022-08-24T08:29:35.544Z,1.50
2022-08-24T08:32:17.031Z,2.22
2022-08-24T08:34:47.603Z,2.53
2022-08-24T08:37:17.466Z,2.30
2022-08-24T08:39:49.013Z,2.88
2022-08-24T08:42:37.330Z,2.22
2022-08-24T08:45:37.729Z,4.63
2022-08-24T08:48:18.006Z,1.52
2022-08-24T08:51:19.184Z,1.55
2022-08-24T08:54:11.845Z,1.42
2022-08-24T08:57:02.989Z,2.10
2022-08-24T08:59:35.991Z,1.73
2022-08-24T09:02:33.897Z,5.07
2022-08-24T09:05:24.095Z,5.13
2022-08-24T09:08:22.268Z,3.63
2022-08-24T09:11:03.285Z,2.10
2022-08-24T09:13:48.229Z,2.67
2022-08-24T09:16:22.085Z,2.58
2022-08-24T09:19:13.726Z,1.60
2022-08-24T09:21:55.551Z,7.82
2022-08-24T09:24:40.239Z,2.88
2022-08-24T09:27:43.663Z,2.63
2022-08-24T09:30:18.643Z,2.35
2022-08-24T09:33:13.750Z,3.67
2022-08-24T09:36:05.078Z,2.25
2022-08-24T09:38:44.004Z,2.10
2022-08-24T09:41:24.120Z,1.77
2022-08-24T09:44:11.030Z,5.18
2022-08-24T09:47:23.856Z,5.15
2022-08-24T09:50:11.210Z,3.33
2022-08-24T09:52:50.404Z,1.63
2022-08-24T09:55:32.361Z,1.73
2022-08-24T09:58:07.926Z,1.67
2022-08-24T10:00:39.370Z,1.30
2022-08-24T10:03:09.030Z,1.52
2022-08-24T10:05:54.719Z,1.13
2022-08-24T10:08:40.219Z,2.90
2022-08-24T10:11:28.826Z,1.88
2022-08-24T10:14:17.234Z,3.67
2022-08-24T10:16:43.904Z,2.25
2022-08-24T10:19:49.104Z,4.38
2022-08-24T10:22:27.869Z,2.17
2022-08-24T10:25:21.458Z,3.13
2022-08-24T10:28:06.572Z,4.28
2022-08-24T10:30:33.908Z,3.22
2022-08-24T10:33:22.259Z,1.88
2022-08-24T10:36:20.969Z,1.52
2022-08-24T10:39:22.716Z,2.50
2022-08-24T10:42:39.296Z,2.15
2022-08-24T10:45:36.982Z,3.10
2022-08-24T10:48:25.659Z,5.13
2022-08-24T10:50:55.169Z,1.70
2022-08-24T10:53:30.925Z,3.55
2022-08-24T10:56:06.178Z,1.70
2022-08-24T10:58:43.666Z,1.58
2022-08-24T11:01:28.055Z,3.47
2022-08-24T11:04:07.339Z,2.08
2022-08-24T11:06:42.840Z,1.88
2022-08-24T11:09:20.114Z,4.32
2022-08-24T11:11:53.640Z,2.90
2022-08-24T11:14:32.052Z,6.13
2022-08-24T11:17:20.695Z,2.55
2022-08-24T11:19:50.993Z,2.63
2022-08-24T11:22:38.290Z,5.32
2022-08-24T11:25:11.792Z,2.35
2022-08-24T11:27:41.928Z,5.80
2022-08-24T11:30:17.685Z,1.83
2022-08-24T11:32:54.808Z,4.65
2022-08-24T11:35:37.418Z,2.30
2022-08-24T11:38:14.135Z,4.63
2022-08-24T11:40:44.099Z,3.63
2022-08-24T11:43:29.403Z,2.00
2022-08-24T11:46:11.671Z,2.05
2022-08-24T11:48:57.513Z,4.30
2022-08-24T11:51:39.402Z,3.25
2022-08-24T11:54:29.369Z,2.72
2022-08-24T11:57:08.742Z,6.28
2022-08-24T11:59:54.396Z,4.38
2022-08-24T12:02:33.085Z,4.10
2022-08-24T12:05:31.502Z,2.30
2022-08-24T12:08:27.608Z,2.10
2022-08-24T12:11:08.791Z,3.25
2022-08-24T12:14:11.456Z,3.78
2022-08-24T12:17:01.883Z,1.92
2022-08-24T12:19:32.025Z,2.80
2022-08-24T12:22:06.512Z,2.03
2022-08-24T12:24:43.221Z,1.73
2022-08-24T12:27:38.042Z,1.67
2022-08-24T12:30:16.510Z,2.75
2022-08-24T12:32:58.065Z,5.60
2022-08-24T12:35:32.167Z,5.35
2022-08-24T12:38:05.698Z,4.70
2022-08-24T12:40:43.175Z,3.60
2022-08-24T12:43:17.693Z,14.32
2022-08-24T12:45:47.530Z,2.50
2022-08-24T12:48:24.303Z,1.90
2022-08-24T12:51:02.434Z,2.28
2022-08-24T12:54:20.162Z,2.10
2022-08-24T12:56:59.000Z,3.10
2022-08-24T12:59:59.650Z,1.20
2022-08-24T13:02:36.247Z,1.10
2022-08-24T13:05:14.285Z,4.90
2022-08-24T13:07:48.953Z,2.45
2022-08-24T13:13:14.026Z,5.72
2022-08-24T13:15:53.612Z,3.97
2022-08-24T13:18:20.286Z,1.38
2022-08-24T13:20:49.957Z,3.38
2022-08-24T13:23:22.842Z,3.35
2022-08-24T13:26:03.165Z,5.65
2022-08-24T13:28:41.105Z,2.33
2022-08-24T13:31:43.509Z,2.30
2022-08-24T13:34:10.102Z,3.58
2022-08-24T13:36:49.110Z,3.38
2022-08-24T13:39:37.497Z,1.70
2022-08-24T13:42:07.470Z,2.05
2022-08-24T13:44:38.907Z,0.98
2022-08-24T13:47:20.272Z,1.35
2022-08-24T13:52:38.695Z,1.45
2022-08-24T13:55:32.771Z,3.83
2022-08-24T14:01:15.388Z,1.23
2022-08-24T14:04:13.969Z,4.40
2022-08-24T14:06:54.217Z,3.17
2022-08-24T14:09:54.940Z,1.63
2022-08-24T14:12:45.147Z,3.47
2022-08-24T14:15:23.329Z,1.70
2022-08-24T14:18:22.796Z,2.05
2022-08-24T14:21:11.366Z,6.50
2022-08-24T14:23:44.929Z,8.98
2022-08-24T14:26:33.304Z,2.53
2022-08-24T14:29:15.055Z,2.92
2022-08-24T14:32:08.510Z,4.13
2022-08-24T14:34:54.847Z,1.95
2022-08-24T14:37:47.891Z,1.58
2022-08-24T14:40:28.443Z,1.10
2022-08-24T14:42:58.991Z,3.03
2022-08-24T14:45:44.354Z,4.82
2022-08-24T14:48:48.633Z,3.67
2022-08-24T14:54:38.805Z,3.00
2022-08-24T14:57:24.416Z,4.47
2022-08-24T15:00:09.034Z,2.05
2022-08-24T15:02:35.614Z,1.67
2022-08-24T15:05:25.108Z,6.80
2022-08-24T15:08:06.178Z,3.60
2022-08-24T15:10:44.194Z,6.30
2022-08-24T15:13:29.124Z,4.40
2022-08-24T15:16:01.003Z,5.25
2022-08-24T15:18:46.368Z,1.60
2022-08-24T15:21:20.664Z,1.95
2022-08-24T15:24:09.707Z,1.88
2022-08-24T15:27:07.280Z,1.83
2022-08-24T15:29:35.608Z,3.90
2022-08-24T15:32:12.679Z,1.75
2022-08-24T15:34:45.806Z,3.35
2022-08-24T15:37:25.858Z,4.18
2022-08-24T15:39:54.808Z,2.05
2022-08-24T15:42:21.572Z,3.10
2022-08-24T15:44:50.354Z,1.88
2022-08-24T15:47:27.282Z,3.15
2022-08-24T15:50:01.634Z,3.03
2022-08-24T15:52:39.760Z,1.40
2022-08-24T15:55:08.195Z,3.65
2022-08-24T15:57:41.949Z,1.55
2022-08-24T16:00:15.677Z,2.65
2022-08-24T16:02:44.604Z,4.30
2022-08-24T16:05:25.777Z,6.03
2022-08-24T16:08:05.053Z,1.90
2022-08-24T16:10:45.958Z,1.58
2022-08-24T16:13:18.634Z,2.72
2022-08-24T16:16:08.954Z,1.73
2022-08-24T16:18:58.376Z,1.38
2022-08-24T16:21:32.673Z,6.35
2022-08-24T16:24:10.570Z,10.32
2022-08-24T16:26:48.918Z,4.53
2022-08-24T16:29:37.776Z,3.55
2022-08-24T16:32:21.729Z,2.00
2022-08-24T16:35:11.743Z,6.40
2022-08-24T16:37:40.971Z,3.28
2022-08-24T16:40:09.258Z,1.70
2022-08-24T16:42:39.204Z,1.83
2022-08-24T16:45:08.036Z,3.55
2022-08-24T16:47:37.154Z,2.15
2022-08-24T16:50:08.313Z,1.92
2022-08-24T16:52:35.128Z,2.40
2022-08-24T16:55:01.968Z,2.00
2022-08-24T16:57:31.288Z,1.50
2022-08-24T16:59:58.214Z,2.10
2022-08-24T17:02:25.938Z,2.35
2022-08-24T17:04:54.686Z,2.95
2022-08-24T17:07:28.175Z,3.33
2022-08-24T17:09:58.349Z,2.40
2022-08-24T17:12:27.349Z,2.45
2022-08-24T17:14:54.914Z,3.75
2022-08-24T17:17:24.268Z,2.33
2022-08-24T17:19:53.515Z,2.53
2022-08-24T17:22:25.996Z,5.80
2022-08-24T17:24:53.430Z,3.00
2022-08-24T17:27:30.737Z,2.75
2022-08-24T17:30:00.010Z,2.72
2022-08-24T17:32:29.071Z,6.45
2022-08-24T17:35:02.037Z,2.75
2022-08-24T17:37:28.652Z,5.93
2022-08-24T17:39:57.634Z,2.53
2022-08-24T17:42:49.575Z,5.32
2022-08-24T17:45:13.014Z,3.35
2022-08-24T17:47:40.847Z,5.78
2022-08-24T17:50:10.259Z,2.15
2022-08-24T17:52:40.212Z,4.32
2022-08-24T17:55:09.494Z,6.47
2022-08-24T17:57:37.387Z,3.13
2022-08-24T18:00:10.462Z,2.58
2022-08-24T18:02:37.139Z,2.03
2022-08-24T18:05:08.463Z,4.05
2022-08-24T18:07:52.600Z,3.85
2022-08-24T18:10:27.831Z,2.35
2022-08-24T18:12:57.933Z,7.07
2022-08-24T18:15:34.898Z,10.50
2022-08-24T18:18:05.945Z,3.75
2022-08-24T18:20:38.444Z,5.83
2022-08-24T18:23:11.493Z,5.85
2022-08-24T18:28:09.317Z,4.57
2022-08-24T18:30:36.958Z,3.17
2022-08-24T18:33:06.439Z,4.70
2022-08-24T18:35:34.349Z,5.43
2022-08-24T18:38:03.197Z,4.40
2022-08-24T18:40:33.290Z,3.22
2022-08-24T18:43:03.676Z,2.55
2022-08-24T18:45:35.725Z,4.72
2022-08-24T18:48:04.633Z,4.97
2022-08-24T18:50:32.781Z,3.50
2022-08-24T18:52:59.691Z,5.72
2022-08-24T18:55:26.920Z,3.25
2022-08-24T18:57:56.151Z,4.60
2022-08-24T19:00:22.859Z,6.35
2022-08-24T19:02:50.360Z,4.85
2022-08-24T19:05:21.440Z,5.47
2022-08-24T19:07:54.715Z,5.05
2022-08-24T19:10:31.904Z,5.25
2022-08-24T19:13:02.050Z,7.28
2022-08-24T19:15:39.201Z,5.97
2022-08-24T19:18:11.275Z,6.97
2022-08-24T19:20:48.056Z,21.80
2022-08-24T19:23:40.503Z,53.40
2022-08-24T19:26:07.263Z,60.63
2022-08-24T19:28:33.924Z,78.50
2022-08-24T19:31:03.981Z,59.75
2022-08-24T19:33:43.781Z,49.03
2022-08-24T19:36:13.715Z,31.85
2022-08-24T19:38:43.125Z,15.48
2022-08-24T19:41:17.526Z,14.55
2022-08-24T19:44:09.120Z,11.50
2022-08-24T19:46:38.626Z,8.30
2022-08-24T19:49:08.448Z,7.47
2022-08-24T19:51:40.385Z,4.30
2022-08-24T19:54:09.669Z,7.82
2022-08-24T19:56:36.271Z,4.13
2022-08-24T19:59:08.077Z,3.95
2022-08-24T20:01:37.609Z,3.83
2022-08-24T20:04:07.183Z,4.25
2022-08-24T20:06:37.116Z,7.07
2022-08-24T20:09:04.735Z,5.10
2022-08-24T20:11:31.805Z,3.70
2022-08-24T20:14:02.516Z,3.95
2022-08-24T20:16:35.907Z,8.40
2022-08-24T20:19:05.261Z,6.90
2022-08-24T20:21:35.810Z,4.53
2022-08-24T20:24:02.610Z,6.25
2022-08-24T20:26:36.303Z,8.05
2022-08-24T20:31:30.336Z,7.70
2022-08-24T20:33:57.450Z,6.22
2022-08-24T20:36:36.684Z,4.40
2022-08-24T20:39:06.557Z,4.57
2022-08-24T20:41:40.619Z,4.40
2022-08-24T20:44:10.041Z,4.30
2022-08-24T20:46:38.831Z,6.70
2022-08-24T20:49:15.322Z,5.60
2022-08-24T20:51:43.599Z,5.70
2022-08-24T20:54:14.726Z,7.53
2022-08-24T20:56:44.005Z,5.18
2022-08-24T20:59:12.704Z,4.63
2022-08-24T21:01:42.991Z,11.27
2022-08-24T21:04:10.117Z,6.60
2022-08-24T21:06:38.947Z,5.22
2022-08-24T21:09:06.412Z,7.80
2022-08-24T21:11:33.898Z,7.13
2022-08-24T21:14:06.721Z,7.78
2022-08-24T21:16:36.033Z,10.50
2022-08-24T21:19:02.784Z,6.28
2022-08-24T21:21:29.551Z,6.57
2022-08-24T21:23:56.268Z,5.53
2022-08-24T21:26:25.749Z,5.43
2022-08-24T21:28:52.494Z,6.03
2022-08-24T21:31:19.049Z,5.93
2022-08-24T21:34:04.361Z,6.45
2022-08-24T21:36:33.793Z,6.28
2022-08-24T21:39:00.389Z,5.30
2022-08-24T21:41:29.287Z,5.60
2022-08-24T21:43:56.463Z,9.80
2022-08-24T21:46:35.497Z,6.90
2022-08-24T21:49:02.278Z,6.10
2022-08-24T21:51:31.241Z,9.88
2022-08-24T21:53:59.698Z,5.35
2022-08-24T21:56:29.143Z,4.93
2022-08-24T21:58:55.715Z,8.77
2022-08-24T22:01:24.797Z,9.95
2022-08-24T22:03:53.877Z,5.80
2022-08-24T22:06:20.519Z,5.50
2022-08-24T22:08:51.479Z,12.05
2022-08-24T22:11:24.368Z,7.60
2022-08-24T22:13:54.137Z,7.30
2022-08-24T22:16:21.285Z,10.88
2022-08-24T22:18:48.425Z,8.80
2022-08-24T22:21:20.264Z,6.93
2022-08-24T22:23:49.468Z,5.80
2022-08-24T22:26:16.312Z,7.65
2022-08-24T22:28:45.131Z,6.45
2022-08-24T22:31:24.294Z,13.05
2022-08-24T22:33:51.395Z,7.28
2022-08-24T22:36:18.716Z,7.82
2022-08-24T22:38:48.593Z,7.53
2022-08-24T22:41:15.520Z,7.20
2022-08-24T22:44:00.767Z,9.43
2022-08-24T22:46:30.126Z,7.00
2022-08-24T22:48:56.725Z,8.38
2022-08-24T22:51:23.443Z,5.63
2022-08-24T22:53:49.945Z,13.45
2022-08-24T22:56:22.296Z,11.63
2022-08-24T22:58:49.654Z,8.55
2022-08-24T23:01:29.747Z,7.57
2022-08-24T23:04:00.623Z,6.80
2022-08-24T23:06:27.820Z,7.50
2022-08-24T23:08:57.205Z,6.32
2022-08-24T23:11:28.762Z,7.00
2022-08-24T23:14:01.309Z,6.50
2022-08-24T23:16:28.456Z,10.30
2022-08-24T23:19:16.673Z,7.15
2022-08-24T23:21:46.114Z,12.85
2022-08-24T23:24:15.378Z,7.50
2022-08-24T23:26:46.346Z,7.68
2022-08-24T23:29:17.687Z,7.82
2022-08-24T23:31:47.426Z,6.75
2022-08-24T23:34:16.946Z,14.52
2022-08-24T23:36:44.291Z,8.52
2022-08-24T23:39:14.173Z,7.75
2022-08-24T23:41:43.134Z,6.90
2022-08-24T23:44:19.434Z,9.57
2022-08-24T23:46:46.536Z,6.22
2022-08-24T23:49:14.954Z,8.30
2022-08-24T23:51:42.216Z,10.48
2022-08-24T23:54:11.884Z,9.02
2022-08-24T23:56:41.971Z,11.15
2022-08-24T23:59:12.716Z,15.15
